sensor_id;sensor_type;location;lat;lon;timestamp;temperature;humidity
13482;DHT22;6813;60.352;15.746;2023-03-18T00:02:07;2.10;99.90
13482;DHT22;6813;60.352;15.746;2023-03-18T00:04:33;2.20;99.90
13482;DHT22;6813;60.352;15.746;2023-03-18T00:06:59;2.20;99.90
13482;DHT22;6813;60.352;15.746;2023-03-18T00:09:26;2.10;99.90
13482;DHT22;6813;60.352;15.746;2023-03-18T00:11:52;2.10;99.90
13482;DHT22;6813;60.352;15.746;2023-03-18T00:14:18;2.10;99.90
13482;DHT22;6813;60.352;15.746;2023-03-18T00:16:44;2.10;99.90
13482;DHT22;6813;60.352;15.746;2023-03-18T00:19:10;2.10;99.90
13482;DHT22;6813;60.352;15.746;2023-03-18T00:21:37;2.20;99.90
13482;DHT22;6813;60.352;15.746;2023-03-18T00:24:03;2.30;99.90
13482;DHT22;6813;60.352;15.746;2023-03-18T00:26:29;2.30;99.90
13482;DHT22;6813;60.352;15.746;2023-03-18T00:28:57;2.30;99.90
13482;DHT22;6813;60.352;15.746;2023-03-18T00:31:23;2.30;99.90
13482;DHT22;6813;60.352;15.746;2023-03-18T00:33:49;2.30;99.90
13482;DHT22;6813;60.352;15.746;2023-03-18T00:36:16;2.30;99.90
13482;DHT22;6813;60.352;15.746;2023-03-18T00:38:45;2.20;99.90
13482;DHT22;6813;60.352;15.746;2023-03-18T00:41:12;2.30;99.90
13482;DHT22;6813;60.352;15.746;2023-03-18T00:43:45;2.40;99.90
13482;DHT22;6813;60.352;15.746;2023-03-18T00:46:18;2.40;99.90
13482;DHT22;6813;60.352;15.746;2023-03-18T00:48:45;2.50;99.90
13482;DHT22;6813;60.352;15.746;2023-03-18T00:51:11;2.40;99.90
13482;DHT22;6813;60.352;15.746;2023-03-18T00:53:42;2.60;99.90
13482;DHT22;6813;60.352;15.746;2023-03-18T00:56:10;2.60;99.90
13482;DHT22;6813;60.352;15.746;2023-03-18T00:58:36;2.60;99.90
13482;DHT22;6813;60.352;15.746;2023-03-18T01:01:06;2.60;99.90
13482;DHT22;6813;60.352;15.746;2023-03-18T01:03:32;2.40;99.90
13482;DHT22;6813;60.352;15.746;2023-03-18T01:06:01;2.40;99.90
13482;DHT22;6813;60.352;15.746;2023-03-18T01:08:29;2.40;99.90
13482;DHT22;6813;60.352;15.746;2023-03-18T01:10:55;2.40;99.90
13482;DHT22;6813;60.352;15.746;2023-03-18T01:13:21;2.40;99.90
13482;DHT22;6813;60.352;15.746;2023-03-18T01:15:49;2.40;99.90
13482;DHT22;6813;60.352;15.746;2023-03-18T01:18:15;2.50;99.90
13482;DHT22;6813;60.352;15.746;2023-03-18T01:20:41;2.40;99.90
13482;DHT22;6813;60.352;15.746;2023-03-18T01:23:10;2.50;99.90
13482;DHT22;6813;60.352;15.746;2023-03-18T01:25:37;2.50;99.90
13482;DHT22;6813;60.352;15.746;2023-03-18T01:28:03;2.50;99.90
13482;DHT22;6813;60.352;15.746;2023-03-18T01:30:30;2.50;99.90
13482;DHT22;6813;60.352;15.746;2023-03-18T01:32:56;2.50;99.90
13482;DHT22;6813;60.352;15.746;2023-03-18T01:35:23;2.50;99.90
13482;DHT22;6813;60.352;15.746;2023-03-18T01:37:50;2.50;99.90
13482;DHT22;6813;60.352;15.746;2023-03-18T01:40:18;2.40;99.90
13482;DHT22;6813;60.352;15.746;2023-03-18T01:42:51;2.40;99.90
13482;DHT22;6813;60.352;15.746;2023-03-18T01:45:24;2.40;99.90
13482;DHT22;6813;60.352;15.746;2023-03-18T01:47:50;2.40;99.90
13482;DHT22;6813;60.352;15.746;2023-03-18T01:50:21;2.40;99.90
13482;DHT22;6813;60.352;15.746;2023-03-18T01:52:51;2.40;99.90
13482;DHT22;6813;60.352;15.746;2023-03-18T01:55:21;2.40;99.90
13482;DHT22;6813;60.352;15.746;2023-03-18T01:57:48;2.30;99.90
13482;DHT22;6813;60.352;15.746;2023-03-18T02:00:15;2.30;99.90
13482;DHT22;6813;60.352;15.746;2023-03-18T02:02:43;2.30;99.90
13482;DHT22;6813;60.352;15.746;2023-03-18T02:05:12;2.50;99.90
13482;DHT22;6813;60.352;15.746;2023-03-18T02:07:41;2.50;99.90
13482;DHT22;6813;60.352;15.746;2023-03-18T02:10:14;2.50;99.90
13482;DHT22;6813;60.352;15.746;2023-03-18T02:12:42;2.40;99.90
13482;DHT22;6813;60.352;15.746;2023-03-18T02:15:13;2.50;99.90
13482;DHT22;6813;60.352;15.746;2023-03-18T02:17:44;2.50;99.90
13482;DHT22;6813;60.352;15.746;2023-03-18T02:23:06;2.50;99.90
13482;DHT22;6813;60.352;15.746;2023-03-18T02:26:04;2.40;99.90
13482;DHT22;6813;60.352;15.746;2023-03-18T02:28:34;2.40;99.90
13482;DHT22;6813;60.352;15.746;2023-03-18T02:31:04;2.50;99.90
13482;DHT22;6813;60.352;15.746;2023-03-18T02:33:35;2.60;99.90
13482;DHT22;6813;60.352;15.746;2023-03-18T02:36:06;2.60;99.90
13482;DHT22;6813;60.352;15.746;2023-03-18T02:38:34;2.60;99.90
13482;DHT22;6813;60.352;15.746;2023-03-18T02:41:00;2.70;99.90
13482;DHT22;6813;60.352;15.746;2023-03-18T02:43:28;2.90;99.90
13482;DHT22;6813;60.352;15.746;2023-03-18T02:46:33;2.90;99.90
13482;DHT22;6813;60.352;15.746;2023-03-18T02:49:02;2.90;99.90
13482;DHT22;6813;60.352;15.746;2023-03-18T02:51:29;3.00;99.90
13482;DHT22;6813;60.352;15.746;2023-03-18T02:54:00;3.00;99.90
13482;DHT22;6813;60.352;15.746;2023-03-18T02:56:27;3.00;99.90
13482;DHT22;6813;60.352;15.746;2023-03-18T02:58:53;3.00;99.90
13482;DHT22;6813;60.352;15.746;2023-03-18T03:01:20;3.00;99.90
13482;DHT22;6813;60.352;15.746;2023-03-18T03:03:47;3.00;99.90
13482;DHT22;6813;60.352;15.746;2023-03-18T03:06:13;3.00;99.90
13482;DHT22;6813;60.352;15.746;2023-03-18T03:08:40;3.00;99.90
13482;DHT22;6813;60.352;15.746;2023-03-18T03:11:06;2.80;99.90
13482;DHT22;6813;60.352;15.746;2023-03-18T03:13:33;2.70;99.90
13482;DHT22;6813;60.352;15.746;2023-03-18T03:15:59;2.70;99.90
13482;DHT22;6813;60.352;15.746;2023-03-18T03:18:25;2.80;99.90
13482;DHT22;6813;60.352;15.746;2023-03-18T03:20:51;2.80;99.90
13482;DHT22;6813;60.352;15.746;2023-03-18T03:23:18;2.90;99.90
13482;DHT22;6813;60.352;15.746;2023-03-18T03:25:44;2.80;99.90
13482;DHT22;6813;60.352;15.746;2023-03-18T03:28:11;2.80;99.90
13482;DHT22;6813;60.352;15.746;2023-03-18T03:30:38;2.90;99.90
13482;DHT22;6813;60.352;15.746;2023-03-18T03:33:04;2.90;99.90
13482;DHT22;6813;60.352;15.746;2023-03-18T03:35:31;2.90;99.90
13482;DHT22;6813;60.352;15.746;2023-03-18T03:37:57;2.90;99.90
13482;DHT22;6813;60.352;15.746;2023-03-18T03:40:23;2.90;99.90
13482;DHT22;6813;60.352;15.746;2023-03-18T03:42:49;2.90;99.90
13482;DHT22;6813;60.352;15.746;2023-03-18T03:45:16;3.00;99.90
13482;DHT22;6813;60.352;15.746;2023-03-18T03:47:43;3.10;99.90
13482;DHT22;6813;60.352;15.746;2023-03-18T03:50:11;3.10;99.90
13482;DHT22;6813;60.352;15.746;2023-03-18T03:52:37;3.10;99.90
13482;DHT22;6813;60.352;15.746;2023-03-18T03:55:05;3.10;99.90
13482;DHT22;6813;60.352;15.746;2023-03-18T03:57:32;3.20;99.90
13482;DHT22;6813;60.352;15.746;2023-03-18T03:59:57;3.10;99.90
13482;DHT22;6813;60.352;15.746;2023-03-18T04:02:23;2.90;99.90
13482;DHT22;6813;60.352;15.746;2023-03-18T04:04:52;2.90;99.90
13482;DHT22;6813;60.352;15.746;2023-03-18T04:07:18;2.80;99.90
13482;DHT22;6813;60.352;15.746;2023-03-18T04:09:44;2.80;99.90
13482;DHT22;6813;60.352;15.746;2023-03-18T04:12:10;2.90;99.90
13482;DHT22;6813;60.352;15.746;2023-03-18T04:14:36;3.10;99.90
13482;DHT22;6813;60.352;15.746;2023-03-18T04:17:03;3.20;99.90
13482;DHT22;6813;60.352;15.746;2023-03-18T04:19:28;3.20;99.90
13482;DHT22;6813;60.352;15.746;2023-03-18T04:21:54;3.20;99.90
13482;DHT22;6813;60.352;15.746;2023-03-18T04:24:21;3.30;99.90
13482;DHT22;6813;60.352;15.746;2023-03-18T04:26:48;3.40;99.90
13482;DHT22;6813;60.352;15.746;2023-03-18T04:29:14;3.30;99.90
13482;DHT22;6813;60.352;15.746;2023-03-18T04:31:40;3.40;99.90
13482;DHT22;6813;60.352;15.746;2023-03-18T04:34:06;3.40;99.90
13482;DHT22;6813;60.352;15.746;2023-03-18T04:36:31;3.20;99.90
13482;DHT22;6813;60.352;15.746;2023-03-18T04:38:57;3.10;99.90
13482;DHT22;6813;60.352;15.746;2023-03-18T04:41:24;3.20;99.90
13482;DHT22;6813;60.352;15.746;2023-03-18T04:43:51;3.10;99.90
13482;DHT22;6813;60.352;15.746;2023-03-18T04:46:17;3.20;99.90
13482;DHT22;6813;60.352;15.746;2023-03-18T04:48:42;3.30;99.90
13482;DHT22;6813;60.352;15.746;2023-03-18T04:51:09;3.30;99.90
13482;DHT22;6813;60.352;15.746;2023-03-18T04:53:35;3.50;99.90
13482;DHT22;6813;60.352;15.746;2023-03-18T04:56:02;3.60;99.90
13482;DHT22;6813;60.352;15.746;2023-03-18T04:58:28;3.80;99.90
13482;DHT22;6813;60.352;15.746;2023-03-18T05:00:54;3.90;99.90
13482;DHT22;6813;60.352;15.746;2023-03-18T05:03:20;4.00;99.90
13482;DHT22;6813;60.352;15.746;2023-03-18T05:05:45;3.60;99.90
13482;DHT22;6813;60.352;15.746;2023-03-18T05:08:11;3.50;99.90
13482;DHT22;6813;60.352;15.746;2023-03-18T05:10:37;3.30;99.90
13482;DHT22;6813;60.352;15.746;2023-03-18T05:13:04;3.20;99.90
13482;DHT22;6813;60.352;15.746;2023-03-18T05:15:31;3.20;99.90
13482;DHT22;6813;60.352;15.746;2023-03-18T05:17:56;3.20;99.90
13482;DHT22;6813;60.352;15.746;2023-03-18T05:20:22;3.10;99.90
13482;DHT22;6813;60.352;15.746;2023-03-18T05:22:48;3.20;99.90
13482;DHT22;6813;60.352;15.746;2023-03-18T05:25:14;3.40;99.90
13482;DHT22;6813;60.352;15.746;2023-03-18T05:27:40;3.50;99.90
13482;DHT22;6813;60.352;15.746;2023-03-18T05:30:07;3.60;99.90
13482;DHT22;6813;60.352;15.746;2023-03-18T05:32:34;3.40;99.90
13482;DHT22;6813;60.352;15.746;2023-03-18T05:35:00;3.40;99.90
13482;DHT22;6813;60.352;15.746;2023-03-18T05:37:25;3.40;99.90
13482;DHT22;6813;60.352;15.746;2023-03-18T05:39:51;3.50;99.90
13482;DHT22;6813;60.352;15.746;2023-03-18T05:42:18;3.50;99.90
13482;DHT22;6813;60.352;15.746;2023-03-18T05:44:44;3.60;99.90
13482;DHT22;6813;60.352;15.746;2023-03-18T05:47:10;3.70;99.90
13482;DHT22;6813;60.352;15.746;2023-03-18T05:49:35;3.80;99.90
13482;DHT22;6813;60.352;15.746;2023-03-18T05:52:02;3.90;99.90
13482;DHT22;6813;60.352;15.746;2023-03-18T05:54:27;4.10;99.90
13482;DHT22;6813;60.352;15.746;2023-03-18T05:56:54;4.10;99.90
13482;DHT22;6813;60.352;15.746;2023-03-18T05:59:20;3.90;99.90
13482;DHT22;6813;60.352;15.746;2023-03-18T06:01:48;3.80;99.90
13482;DHT22;6813;60.352;15.746;2023-03-18T06:04:14;3.80;99.90
13482;DHT22;6813;60.352;15.746;2023-03-18T06:06:42;3.70;99.90
13482;DHT22;6813;60.352;15.746;2023-03-18T06:09:10;3.50;99.90
13482;DHT22;6813;60.352;15.746;2023-03-18T06:11:37;3.40;99.90
13482;DHT22;6813;60.352;15.746;2023-03-18T06:14:05;3.30;99.90
13482;DHT22;6813;60.352;15.746;2023-03-18T06:16:31;3.30;99.90
13482;DHT22;6813;60.352;15.746;2023-03-18T06:18:57;3.20;99.90
13482;DHT22;6813;60.352;15.746;2023-03-18T06:21:23;3.30;99.90
13482;DHT22;6813;60.352;15.746;2023-03-18T06:23:50;3.40;99.90
13482;DHT22;6813;60.352;15.746;2023-03-18T06:26:16;3.50;99.90
13482;DHT22;6813;60.352;15.746;2023-03-18T06:28:42;3.50;99.90
13482;DHT22;6813;60.352;15.746;2023-03-18T06:31:09;3.50;99.90
13482;DHT22;6813;60.352;15.746;2023-03-18T06:33:35;3.40;99.90
13482;DHT22;6813;60.352;15.746;2023-03-18T06:36:01;3.40;99.90
13482;DHT22;6813;60.352;15.746;2023-03-18T06:38:27;3.50;99.90
13482;DHT22;6813;60.352;15.746;2023-03-18T06:40:53;3.60;99.90
13482;DHT22;6813;60.352;15.746;2023-03-18T06:43:20;3.70;99.90
13482;DHT22;6813;60.352;15.746;2023-03-18T06:45:46;3.70;99.90
13482;DHT22;6813;60.352;15.746;2023-03-18T06:48:12;3.80;99.90
13482;DHT22;6813;60.352;15.746;2023-03-18T06:50:38;4.00;99.90
13482;DHT22;6813;60.352;15.746;2023-03-18T06:53:05;4.10;99.90
13482;DHT22;6813;60.352;15.746;2023-03-18T06:55:30;4.00;99.90
13482;DHT22;6813;60.352;15.746;2023-03-18T06:57:57;3.90;99.90
13482;DHT22;6813;60.352;15.746;2023-03-18T07:00:23;3.80;99.90
13482;DHT22;6813;60.352;15.746;2023-03-18T07:02:50;3.70;99.90
13482;DHT22;6813;60.352;15.746;2023-03-18T07:05:15;3.80;99.90
13482;DHT22;6813;60.352;15.746;2023-03-18T07:07:42;3.80;99.90
13482;DHT22;6813;60.352;15.746;2023-03-18T07:10:13;3.70;99.90
13482;DHT22;6813;60.352;15.746;2023-03-18T07:12:41;3.70;99.90
13482;DHT22;6813;60.352;15.746;2023-03-18T07:15:08;3.70;99.90
13482;DHT22;6813;60.352;15.746;2023-03-18T07:17:34;3.70;99.90
13482;DHT22;6813;60.352;15.746;2023-03-18T07:19:59;3.70;99.90
13482;DHT22;6813;60.352;15.746;2023-03-18T07:22:25;3.80;99.90
13482;DHT22;6813;60.352;15.746;2023-03-18T07:24:51;4.00;99.90
13482;DHT22;6813;60.352;15.746;2023-03-18T07:27:16;3.90;99.90
13482;DHT22;6813;60.352;15.746;2023-03-18T07:29:42;3.90;99.90
13482;DHT22;6813;60.352;15.746;2023-03-18T07:32:08;3.90;99.90
13482;DHT22;6813;60.352;15.746;2023-03-18T07:34:34;3.80;99.90
13482;DHT22;6813;60.352;15.746;2023-03-18T07:37:00;3.80;99.90
13482;DHT22;6813;60.352;15.746;2023-03-18T07:39:26;3.70;99.90
13482;DHT22;6813;60.352;15.746;2023-03-18T07:41:53;3.80;99.90
13482;DHT22;6813;60.352;15.746;2023-03-18T07:44:18;3.70;99.90
13482;DHT22;6813;60.352;15.746;2023-03-18T07:46:44;3.70;99.90
13482;DHT22;6813;60.352;15.746;2023-03-18T07:49:10;3.70;99.90
13482;DHT22;6813;60.352;15.746;2023-03-18T07:51:36;3.70;99.90
13482;DHT22;6813;60.352;15.746;2023-03-18T07:54:01;3.80;99.90
13482;DHT22;6813;60.352;15.746;2023-03-18T07:56:29;3.90;99.90
13482;DHT22;6813;60.352;15.746;2023-03-18T07:58:56;3.90;99.90
13482;DHT22;6813;60.352;15.746;2023-03-18T08:01:21;4.10;99.90
13482;DHT22;6813;60.352;15.746;2023-03-18T08:03:47;4.30;99.90
13482;DHT22;6813;60.352;15.746;2023-03-18T08:06:13;4.50;99.90
13482;DHT22;6813;60.352;15.746;2023-03-18T08:08:40;4.60;99.90
13482;DHT22;6813;60.352;15.746;2023-03-18T08:11:06;4.70;99.90
13482;DHT22;6813;60.352;15.746;2023-03-18T08:13:34;4.80;99.90
13482;DHT22;6813;60.352;15.746;2023-03-18T08:16:00;4.90;99.90
13482;DHT22;6813;60.352;15.746;2023-03-18T08:18:25;5.00;99.90
13482;DHT22;6813;60.352;15.746;2023-03-18T08:20:51;5.00;99.90
13482;DHT22;6813;60.352;15.746;2023-03-18T08:23:17;4.90;99.90
13482;DHT22;6813;60.352;15.746;2023-03-18T08:25:46;5.00;99.90
13482;DHT22;6813;60.352;15.746;2023-03-18T08:28:14;5.20;99.90
13482;DHT22;6813;60.352;15.746;2023-03-18T08:30:40;5.30;99.90
13482;DHT22;6813;60.352;15.746;2023-03-18T08:33:06;5.40;99.90
13482;DHT22;6813;60.352;15.746;2023-03-18T08:35:33;5.50;99.90
13482;DHT22;6813;60.352;15.746;2023-03-18T08:37:59;5.50;99.90
13482;DHT22;6813;60.352;15.746;2023-03-18T08:40:25;5.80;99.90
13482;DHT22;6813;60.352;15.746;2023-03-18T08:42:51;5.90;99.90
13482;DHT22;6813;60.352;15.746;2023-03-18T08:45:17;5.90;99.90
13482;DHT22;6813;60.352;15.746;2023-03-18T08:47:43;6.00;99.90
13482;DHT22;6813;60.352;15.746;2023-03-18T08:50:10;6.00;99.90
13482;DHT22;6813;60.352;15.746;2023-03-18T08:52:36;6.00;99.90
13482;DHT22;6813;60.352;15.746;2023-03-18T08:55:07;6.00;99.90
13482;DHT22;6813;60.352;15.746;2023-03-18T08:57:34;6.00;99.90
13482;DHT22;6813;60.352;15.746;2023-03-18T09:00:00;6.00;99.90
13482;DHT22;6813;60.352;15.746;2023-03-18T09:02:26;5.90;99.90
13482;DHT22;6813;60.352;15.746;2023-03-18T09:04:53;5.90;99.90
13482;DHT22;6813;60.352;15.746;2023-03-18T09:07:20;5.70;99.90
13482;DHT22;6813;60.352;15.746;2023-03-18T09:09:45;5.40;99.90
13482;DHT22;6813;60.352;15.746;2023-03-18T09:12:12;5.20;99.90
13482;DHT22;6813;60.352;15.746;2023-03-18T09:14:42;5.10;99.90
13482;DHT22;6813;60.352;15.746;2023-03-18T09:17:08;5.20;99.90
13482;DHT22;6813;60.352;15.746;2023-03-18T09:19:34;5.10;99.90
13482;DHT22;6813;60.352;15.746;2023-03-18T09:22:01;5.00;99.90
13482;DHT22;6813;60.352;15.746;2023-03-18T09:24:26;5.00;99.90
13482;DHT22;6813;60.352;15.746;2023-03-18T09:26:52;5.20;99.90
13482;DHT22;6813;60.352;15.746;2023-03-18T09:29:18;5.20;99.90
13482;DHT22;6813;60.352;15.746;2023-03-18T09:31:43;5.20;99.90
13482;DHT22;6813;60.352;15.746;2023-03-18T09:34:09;5.00;99.90
13482;DHT22;6813;60.352;15.746;2023-03-18T09:36:38;5.10;99.90
13482;DHT22;6813;60.352;15.746;2023-03-18T09:39:13;5.30;99.90
13482;DHT22;6813;60.352;15.746;2023-03-18T09:44:36;5.40;99.90
13482;DHT22;6813;60.352;15.746;2023-03-18T09:52:27;5.60;99.90
13482;DHT22;6813;60.352;15.746;2023-03-18T09:55:01;5.80;99.90
13482;DHT22;6813;60.352;15.746;2023-03-18T09:57:37;5.70;99.90
13482;DHT22;6813;60.352;15.746;2023-03-18T10:05:53;6.10;99.90
13482;DHT22;6813;60.352;15.746;2023-03-18T10:11:31;5.90;99.90
13482;DHT22;6813;60.352;15.746;2023-03-18T10:19:25;6.30;99.90
13482;DHT22;6813;60.352;15.746;2023-03-18T10:33:26;6.30;99.90
13482;DHT22;6813;60.352;15.746;2023-03-18T10:35:59;6.40;99.90
13482;DHT22;6813;60.352;15.746;2023-03-18T10:40:56;6.60;99.90
13482;DHT22;6813;60.352;15.746;2023-03-18T10:43:28;6.60;99.90
13482;DHT22;6813;60.352;15.746;2023-03-18T10:45:59;6.70;99.90
13482;DHT22;6813;60.352;15.746;2023-03-18T10:48:31;6.80;99.90
13482;DHT22;6813;60.352;15.746;2023-03-18T10:56:35;7.00;99.90
13482;DHT22;6813;60.352;15.746;2023-03-18T10:59:14;7.10;99.90
13482;DHT22;6813;60.352;15.746;2023-03-18T11:01:42;7.10;99.90
13482;DHT22;6813;60.352;15.746;2023-03-18T11:04:16;7.00;99.90
13482;DHT22;6813;60.352;15.746;2023-03-18T11:06:54;7.10;99.90
13482;DHT22;6813;60.352;15.746;2023-03-18T11:09:23;7.10;99.90
13482;DHT22;6813;60.352;15.746;2023-03-18T11:11:56;7.10;99.90
13482;DHT22;6813;60.352;15.746;2023-03-18T11:14:28;7.20;99.90
13482;DHT22;6813;60.352;15.746;2023-03-18T11:17:03;7.20;99.90
13482;DHT22;6813;60.352;15.746;2023-03-18T11:19:31;7.20;99.90
13482;DHT22;6813;60.352;15.746;2023-03-18T11:22:13;7.10;99.90
13482;DHT22;6813;60.352;15.746;2023-03-18T11:24:42;7.10;99.90
13482;DHT22;6813;60.352;15.746;2023-03-18T11:29:48;7.20;99.90
13482;DHT22;6813;60.352;15.746;2023-03-18T11:32:31;7.20;99.90
13482;DHT22;6813;60.352;15.746;2023-03-18T11:35:03;7.40;99.90
13482;DHT22;6813;60.352;15.746;2023-03-18T11:37:35;7.40;99.90
13482;DHT22;6813;60.352;15.746;2023-03-18T11:40:21;7.40;99.90
13482;DHT22;6813;60.352;15.746;2023-03-18T11:42:54;7.40;99.90
13482;DHT22;6813;60.352;15.746;2023-03-18T11:47:46;7.40;99.90
13482;DHT22;6813;60.352;15.746;2023-03-18T11:50:21;7.30;99.90
13482;DHT22;6813;60.352;15.746;2023-03-18T11:52:59;7.20;99.90
13482;DHT22;6813;60.352;15.746;2023-03-18T11:58:32;7.40;99.90
13482;DHT22;6813;60.352;15.746;2023-03-18T12:03:37;7.30;99.90
13482;DHT22;6813;60.352;15.746;2023-03-18T12:06:25;7.30;99.90
13482;DHT22;6813;60.352;15.746;2023-03-18T12:09:10;7.30;99.90
13482;DHT22;6813;60.352;15.746;2023-03-18T12:14:26;7.20;99.90
13482;DHT22;6813;60.352;15.746;2023-03-18T12:17:18;7.20;99.90
13482;DHT22;6813;60.352;15.746;2023-03-18T12:25:00;7.40;99.90
13482;DHT22;6813;60.352;15.746;2023-03-18T12:39:02;7.50;99.90
13482;DHT22;6813;60.352;15.746;2023-03-18T12:42:02;7.50;99.90
13482;DHT22;6813;60.352;15.746;2023-03-18T12:49:58;7.30;99.90
13482;DHT22;6813;60.352;15.746;2023-03-18T12:52:30;7.40;99.90
13482;DHT22;6813;60.352;15.746;2023-03-18T12:55:05;7.50;99.90
13482;DHT22;6813;60.352;15.746;2023-03-18T12:57:47;7.70;99.90
13482;DHT22;6813;60.352;15.746;2023-03-18T13:00:26;7.70;99.90
13482;DHT22;6813;60.352;15.746;2023-03-18T13:16:39;7.50;99.90
13482;DHT22;6813;60.352;15.746;2023-03-18T13:19:07;7.50;99.90
13482;DHT22;6813;60.352;15.746;2023-03-18T13:21:39;7.40;99.90
13482;DHT22;6813;60.352;15.746;2023-03-18T13:32:27;7.50;99.90
13482;DHT22;6813;60.352;15.746;2023-03-18T13:42:59;7.70;99.90
13482;DHT22;6813;60.352;15.746;2023-03-18T13:45:32;7.60;99.90
13482;DHT22;6813;60.352;15.746;2023-03-18T13:48:06;7.60;99.90
13482;DHT22;6813;60.352;15.746;2023-03-18T13:50:41;7.50;99.90
13482;DHT22;6813;60.352;15.746;2023-03-18T13:53:32;7.50;99.90
13482;DHT22;6813;60.352;15.746;2023-03-18T13:56:06;7.60;99.90
13482;DHT22;6813;60.352;15.746;2023-03-18T13:58:49;7.60;99.90
13482;DHT22;6813;60.352;15.746;2023-03-18T14:06:22;7.80;99.90
13482;DHT22;6813;60.352;15.746;2023-03-18T14:08:50;7.90;99.90
13482;DHT22;6813;60.352;15.746;2023-03-18T14:16:27;8.00;99.90
13482;DHT22;6813;60.352;15.746;2023-03-18T14:21:50;8.00;99.90
13482;DHT22;6813;60.352;15.746;2023-03-18T14:29:27;7.80;99.90
13482;DHT22;6813;60.352;15.746;2023-03-18T14:31:59;7.90;99.90
13482;DHT22;6813;60.352;15.746;2023-03-18T14:34:55;8.00;99.90
13482;DHT22;6813;60.352;15.746;2023-03-18T14:37:31;8.10;99.90
13482;DHT22;6813;60.352;15.746;2023-03-18T14:40:14;8.20;99.90
13482;DHT22;6813;60.352;15.746;2023-03-18T14:43:09;8.30;99.90
13482;DHT22;6813;60.352;15.746;2023-03-18T14:45:39;8.40;99.90
13482;DHT22;6813;60.352;15.746;2023-03-18T14:51:00;8.30;99.90
13482;DHT22;6813;60.352;15.746;2023-03-18T14:53:36;8.30;99.90
13482;DHT22;6813;60.352;15.746;2023-03-18T14:56:05;8.30;99.90
13482;DHT22;6813;60.352;15.746;2023-03-18T14:58:44;8.20;99.90
13482;DHT22;6813;60.352;15.746;2023-03-18T15:01:12;8.30;99.90
13482;DHT22;6813;60.352;15.746;2023-03-18T15:03:42;8.40;99.90
13482;DHT22;6813;60.352;15.746;2023-03-18T15:06:24;8.50;99.90
13482;DHT22;6813;60.352;15.746;2023-03-18T15:09:01;8.50;99.90
13482;DHT22;6813;60.352;15.746;2023-03-18T15:11:30;8.50;99.90
13482;DHT22;6813;60.352;15.746;2023-03-18T15:14:00;8.50;99.90
13482;DHT22;6813;60.352;15.746;2023-03-18T15:16:26;8.50;99.90
13482;DHT22;6813;60.352;15.746;2023-03-18T15:18:57;8.30;99.90
13482;DHT22;6813;60.352;15.746;2023-03-18T15:21:30;8.20;99.90
13482;DHT22;6813;60.352;15.746;2023-03-18T15:24:00;8.20;99.90
13482;DHT22;6813;60.352;15.746;2023-03-18T15:28:57;8.20;99.90
13482;DHT22;6813;60.352;15.746;2023-03-18T15:31:26;8.20;99.90
13482;DHT22;6813;60.352;15.746;2023-03-18T15:36:59;8.20;99.90
13482;DHT22;6813;60.352;15.746;2023-03-18T15:39:39;8.20;99.90
13482;DHT22;6813;60.352;15.746;2023-03-18T15:42:18;8.10;99.90
13482;DHT22;6813;60.352;15.746;2023-03-18T15:44:50;8.10;99.90
13482;DHT22;6813;60.352;15.746;2023-03-18T15:47:28;8.20;99.90
13482;DHT22;6813;60.352;15.746;2023-03-18T15:49:56;8.10;99.90
13482;DHT22;6813;60.352;15.746;2023-03-18T15:52:30;8.00;99.90
13482;DHT22;6813;60.352;15.746;2023-03-18T15:54:58;8.10;99.90
13482;DHT22;6813;60.352;15.746;2023-03-18T15:57:33;8.20;99.90
13482;DHT22;6813;60.352;15.746;2023-03-18T16:00:00;8.20;99.90
13482;DHT22;6813;60.352;15.746;2023-03-18T16:02:27;8.00;99.90
13482;DHT22;6813;60.352;15.746;2023-03-18T16:05:19;8.00;99.90
13482;DHT22;6813;60.352;15.746;2023-03-18T16:07:46;8.00;99.90
13482;DHT22;6813;60.352;15.746;2023-03-18T16:10:13;8.00;99.90
13482;DHT22;6813;60.352;15.746;2023-03-18T16:12:54;8.10;99.90
13482;DHT22;6813;60.352;15.746;2023-03-18T16:15:24;8.20;99.90
13482;DHT22;6813;60.352;15.746;2023-03-18T16:17:51;8.30;99.90
13482;DHT22;6813;60.352;15.746;2023-03-18T16:20:29;8.30;99.90
13482;DHT22;6813;60.352;15.746;2023-03-18T16:22:56;8.30;99.90
13482;DHT22;6813;60.352;15.746;2023-03-18T16:25:23;8.30;99.90
13482;DHT22;6813;60.352;15.746;2023-03-18T16:27:50;8.20;99.90
13482;DHT22;6813;60.352;15.746;2023-03-18T16:30:22;8.10;99.90
13482;DHT22;6813;60.352;15.746;2023-03-18T16:32:49;7.90;99.90
13482;DHT22;6813;60.352;15.746;2023-03-18T16:35:17;7.90;99.90
13482;DHT22;6813;60.352;15.746;2023-03-18T16:37:44;8.00;99.90
13482;DHT22;6813;60.352;15.746;2023-03-18T16:40:20;8.10;99.90
13482;DHT22;6813;60.352;15.746;2023-03-18T16:42:47;8.10;99.90
13482;DHT22;6813;60.352;15.746;2023-03-18T16:45:14;8.10;99.90
13482;DHT22;6813;60.352;15.746;2023-03-18T16:47:45;7.90;99.90
13482;DHT22;6813;60.352;15.746;2023-03-18T16:50:22;7.60;99.90
13482;DHT22;6813;60.352;15.746;2023-03-18T16:52:48;7.40;99.90
13482;DHT22;6813;60.352;15.746;2023-03-18T16:55:16;7.10;99.90
13482;DHT22;6813;60.352;15.746;2023-03-18T16:57:46;6.80;99.90
13482;DHT22;6813;60.352;15.746;2023-03-18T17:00:20;6.80;99.90
13482;DHT22;6813;60.352;15.746;2023-03-18T17:02:47;6.60;99.90
13482;DHT22;6813;60.352;15.746;2023-03-18T17:05:14;6.50;99.90
13482;DHT22;6813;60.352;15.746;2023-03-18T17:07:43;6.50;99.90
13482;DHT22;6813;60.352;15.746;2023-03-18T17:10:10;6.50;99.90
13482;DHT22;6813;60.352;15.746;2023-03-18T17:12:37;6.50;99.90
13482;DHT22;6813;60.352;15.746;2023-03-18T17:15:04;6.50;99.90
13482;DHT22;6813;60.352;15.746;2023-03-18T17:17:33;6.50;99.90
13482;DHT22;6813;60.352;15.746;2023-03-18T17:20:05;6.50;99.90
13482;DHT22;6813;60.352;15.746;2023-03-18T17:22:38;6.40;99.90
13482;DHT22;6813;60.352;15.746;2023-03-18T17:25:04;6.30;99.90
13482;DHT22;6813;60.352;15.746;2023-03-18T17:27:33;6.10;99.90
13482;DHT22;6813;60.352;15.746;2023-03-18T17:29:59;6.00;99.90
13482;DHT22;6813;60.352;15.746;2023-03-18T17:32:25;6.00;99.90
13482;DHT22;6813;60.352;15.746;2023-03-18T17:34:53;6.20;99.90
13482;DHT22;6813;60.352;15.746;2023-03-18T17:37:19;6.30;99.90
13482;DHT22;6813;60.352;15.746;2023-03-18T17:39:45;6.30;99.90
13482;DHT22;6813;60.352;15.746;2023-03-18T17:42:30;6.20;99.90
13482;DHT22;6813;60.352;15.746;2023-03-18T17:45:02;6.20;99.90
13482;DHT22;6813;60.352;15.746;2023-03-18T17:47:30;6.20;99.90
13482;DHT22;6813;60.352;15.746;2023-03-18T17:49:56;6.30;99.90
13482;DHT22;6813;60.352;15.746;2023-03-18T17:52:23;6.40;99.90
13482;DHT22;6813;60.352;15.746;2023-03-18T17:54:49;6.50;99.90
13482;DHT22;6813;60.352;15.746;2023-03-18T17:57:16;6.40;99.90
13482;DHT22;6813;60.352;15.746;2023-03-18T17:59:43;6.30;99.90
13482;DHT22;6813;60.352;15.746;2023-03-18T18:02:12;6.10;99.90
13482;DHT22;6813;60.352;15.746;2023-03-18T18:04:40;5.90;99.90
13482;DHT22;6813;60.352;15.746;2023-03-18T18:07:18;5.90;99.90
13482;DHT22;6813;60.352;15.746;2023-03-18T18:09:44;6.00;99.90
13482;DHT22;6813;60.352;15.746;2023-03-18T18:12:21;6.00;99.90
13482;DHT22;6813;60.352;15.746;2023-03-18T18:14:48;5.90;99.90